sensor_id;sensor_type;location;lat;lon;timestamp;P1;durP1;ratioP1;P2;durP2;ratioP2
37895;SDS011;23733;53.254;10.430;2023-07-29T00:00:57;2.37;;;2.17;;
37895;SDS011;23733;53.254;10.430;2023-07-29T00:03:23;3.43;;;2.53;;
37895;SDS011;23733;53.254;10.430;2023-07-29T00:05:49;3.10;;;2.80;;
37895;SDS011;23733;53.254;10.430;2023-07-29T00:08:15;2.67;;;2.47;;
37895;SDS011;23733;53.254;10.430;2023-07-29T00:10:41;3.13;;;2.60;;
37895;SDS011;23733;53.254;10.430;2023-07-29T00:13:07;2.80;;;2.60;;
37895;SDS011;23733;53.254;10.430;2023-07-29T00:15:33;2.77;;;2.30;;
37895;SDS011;23733;53.254;10.430;2023-07-29T00:17:59;3.47;;;2.47;;
37895;SDS011;23733;53.254;10.430;2023-07-29T00:20:25;2.57;;;2.37;;
37895;SDS011;23733;53.254;10.430;2023-07-29T00:22:51;2.93;;;2.30;;
37895;SDS011;23733;53.254;10.430;2023-07-29T00:25:20;7.40;;;2.60;;
37895;SDS011;23733;53.254;10.430;2023-07-29T00:27:47;3.33;;;2.47;;
37895;SDS011;23733;53.254;10.430;2023-07-29T00:30:13;4.03;;;2.47;;
37895;SDS011;23733;53.254;10.430;2023-07-29T00:32:39;2.87;;;2.37;;
37895;SDS011;23733;53.254;10.430;2023-07-29T00:35:06;3.80;;;2.80;;
37895;SDS011;23733;53.254;10.430;2023-07-29T00:37:32;4.20;;;2.73;;
37895;SDS011;23733;53.254;10.430;2023-07-29T00:39:59;2.57;;;2.37;;
37895;SDS011;23733;53.254;10.430;2023-07-29T00:42:26;3.93;;;2.47;;
37895;SDS011;23733;53.254;10.430;2023-07-29T00:44:53;3.27;;;2.50;;
37895;SDS011;23733;53.254;10.430;2023-07-29T00:47:20;3.43;;;2.60;;
37895;SDS011;23733;53.254;10.430;2023-07-29T00:49:47;3.07;;;2.63;;
37895;SDS011;23733;53.254;10.430;2023-07-29T00:52:15;3.17;;;2.83;;
37895;SDS011;23733;53.254;10.430;2023-07-29T00:54:41;3.30;;;3.00;;
37895;SDS011;23733;53.254;10.430;2023-07-29T00:57:09;6.27;;;2.60;;
37895;SDS011;23733;53.254;10.430;2023-07-29T00:59:38;3.37;;;2.50;;
37895;SDS011;23733;53.254;10.430;2023-07-29T01:02:05;2.87;;;2.57;;
37895;SDS011;23733;53.254;10.430;2023-07-29T01:04:32;3.87;;;2.80;;
37895;SDS011;23733;53.254;10.430;2023-07-29T01:07:01;3.73;;;2.73;;
37895;SDS011;23733;53.254;10.430;2023-07-29T01:12:18;5.37;;;2.87;;
37895;SDS011;23733;53.254;10.430;2023-07-29T01:15:01;4.23;;;2.90;;
37895;SDS011;23733;53.254;10.430;2023-07-29T01:17:33;3.50;;;2.80;;
37895;SDS011;23733;53.254;10.430;2023-07-29T01:22:32;3.77;;;3.10;;
37895;SDS011;23733;53.254;10.430;2023-07-29T01:24:59;3.10;;;2.70;;
37895;SDS011;23733;53.254;10.430;2023-07-29T01:27:26;3.83;;;3.17;;
37895;SDS011;23733;53.254;10.430;2023-07-29T01:29:52;3.70;;;2.60;;
37895;SDS011;23733;53.254;10.430;2023-07-29T01:32:25;3.33;;;2.87;;
37895;SDS011;23733;53.254;10.430;2023-07-29T01:34:56;3.63;;;2.73;;
37895;SDS011;23733;53.254;10.430;2023-07-29T01:37:26;3.30;;;2.80;;
37895;SDS011;23733;53.254;10.430;2023-07-29T01:39:54;5.53;;;2.70;;
37895;SDS011;23733;53.254;10.430;2023-07-29T01:42:23;3.13;;;2.80;;
37895;SDS011;23733;53.254;10.430;2023-07-29T01:44:49;3.40;;;3.10;;
37895;SDS011;23733;53.254;10.430;2023-07-29T01:47:16;3.37;;;2.70;;
37895;SDS011;23733;53.254;10.430;2023-07-29T01:49:42;6.20;;;2.90;;
37895;SDS011;23733;53.254;10.430;2023-07-29T01:52:08;3.90;;;2.90;;
37895;SDS011;23733;53.254;10.430;2023-07-29T01:54:35;3.20;;;2.70;;
37895;SDS011;23733;53.254;10.430;2023-07-29T01:57:01;3.13;;;2.83;;
37895;SDS011;23733;53.254;10.430;2023-07-29T01:59:27;6.13;;;2.83;;
37895;SDS011;23733;53.254;10.430;2023-07-29T02:01:54;4.07;;;2.80;;
37895;SDS011;23733;53.254;10.430;2023-07-29T02:04:20;7.17;;;3.00;;
37895;SDS011;23733;53.254;10.430;2023-07-29T02:06:46;3.63;;;3.00;;
37895;SDS011;23733;53.254;10.430;2023-07-29T02:09:13;4.70;;;2.90;;
37895;SDS011;23733;53.254;10.430;2023-07-29T02:11:39;4.00;;;3.00;;
37895;SDS011;23733;53.254;10.430;2023-07-29T02:14:05;3.93;;;3.47;;
37895;SDS011;23733;53.254;10.430;2023-07-29T02:16:32;5.00;;;3.20;;
37895;SDS011;23733;53.254;10.430;2023-07-29T02:18:59;4.10;;;3.10;;
37895;SDS011;23733;53.254;10.430;2023-07-29T02:21:26;4.97;;;3.23;;
37895;SDS011;23733;53.254;10.430;2023-07-29T02:23:52;4.67;;;3.47;;
37895;SDS011;23733;53.254;10.430;2023-07-29T02:26:18;3.77;;;3.20;;
37895;SDS011;23733;53.254;10.430;2023-07-29T02:28:45;3.60;;;3.30;;
37895;SDS011;23733;53.254;10.430;2023-07-29T02:31:19;5.33;;;4.07;;
37895;SDS011;23733;53.254;10.430;2023-07-29T02:33:46;4.20;;;3.80;;
37895;SDS011;23733;53.254;10.430;2023-07-29T02:36:12;6.87;;;3.60;;
37895;SDS011;23733;53.254;10.430;2023-07-29T02:38:39;4.43;;;3.67;;
37895;SDS011;23733;53.254;10.430;2023-07-29T02:41:06;7.83;;;3.73;;
37895;SDS011;23733;53.254;10.430;2023-07-29T02:43:34;4.97;;;3.50;;
37895;SDS011;23733;53.254;10.430;2023-07-29T02:46:00;4.10;;;3.70;;
37895;SDS011;23733;53.254;10.430;2023-07-29T02:48:27;4.27;;;3.87;;
37895;SDS011;23733;53.254;10.430;2023-07-29T02:50:53;5.23;;;3.87;;
37895;SDS011;23733;53.254;10.430;2023-07-29T02:53:21;5.90;;;4.00;;
37895;SDS011;23733;53.254;10.430;2023-07-29T02:55:48;5.73;;;4.07;;
37895;SDS011;23733;53.254;10.430;2023-07-29T02:58:14;5.07;;;4.00;;
37895;SDS011;23733;53.254;10.430;2023-07-29T03:00:41;5.23;;;3.80;;
37895;SDS011;23733;53.254;10.430;2023-07-29T03:03:07;6.37;;;4.03;;
37895;SDS011;23733;53.254;10.430;2023-07-29T03:05:34;4.20;;;3.73;;
37895;SDS011;23733;53.254;10.430;2023-07-29T03:08:00;7.50;;;4.40;;
37895;SDS011;23733;53.254;10.430;2023-07-29T03:10:26;5.10;;;4.40;;
37895;SDS011;23733;53.254;10.430;2023-07-29T03:12:56;4.40;;;4.00;;
37895;SDS011;23733;53.254;10.430;2023-07-29T03:15:23;5.23;;;4.10;;
37895;SDS011;23733;53.254;10.430;2023-07-29T03:17:50;6.20;;;4.23;;
37895;SDS011;23733;53.254;10.430;2023-07-29T03:20:16;6.60;;;4.33;;
37895;SDS011;23733;53.254;10.430;2023-07-29T03:22:43;6.43;;;4.07;;
37895;SDS011;23733;53.254;10.430;2023-07-29T03:25:09;6.73;;;4.37;;
37895;SDS011;23733;53.254;10.430;2023-07-29T03:27:36;5.63;;;4.07;;
37895;SDS011;23733;53.254;10.430;2023-07-29T03:30:03;5.47;;;4.30;;
37895;SDS011;23733;53.254;10.430;2023-07-29T03:32:29;5.00;;;4.17;;
37895;SDS011;23733;53.254;10.430;2023-07-29T03:34:56;7.67;;;4.87;;
37895;SDS011;23733;53.254;10.430;2023-07-29T03:37:22;6.80;;;5.00;;
37895;SDS011;23733;53.254;10.430;2023-07-29T03:39:48;5.60;;;4.67;;
37895;SDS011;23733;53.254;10.430;2023-07-29T03:42:15;5.33;;;4.30;;
37895;SDS011;23733;53.254;10.430;2023-07-29T03:44:41;6.57;;;4.50;;
37895;SDS011;23733;53.254;10.430;2023-07-29T03:47:07;4.93;;;4.40;;
37895;SDS011;23733;53.254;10.430;2023-07-29T03:49:33;6.97;;;5.00;;
37895;SDS011;23733;53.254;10.430;2023-07-29T03:52:00;8.47;;;4.60;;
37895;SDS011;23733;53.254;10.430;2023-07-29T03:54:26;5.83;;;5.00;;
37895;SDS011;23733;53.254;10.430;2023-07-29T03:56:52;6.57;;;4.40;;
37895;SDS011;23733;53.254;10.430;2023-07-29T03:59:19;6.13;;;4.83;;
37895;SDS011;23733;53.254;10.430;2023-07-29T04:01:48;4.67;;;4.17;;
37895;SDS011;23733;53.254;10.430;2023-07-29T04:04:14;7.47;;;4.63;;
37895;SDS011;23733;53.254;10.430;2023-07-29T04:06:41;5.33;;;4.73;;
37895;SDS011;23733;53.254;10.430;2023-07-29T04:09:07;6.67;;;4.30;;
37895;SDS011;23733;53.254;10.430;2023-07-29T04:11:33;5.50;;;4.60;;
37895;SDS011;23733;53.254;10.430;2023-07-29T04:14:00;5.60;;;4.80;;
37895;SDS011;23733;53.254;10.430;2023-07-29T04:16:26;6.73;;;5.03;;
37895;SDS011;23733;53.254;10.430;2023-07-29T04:18:54;8.57;;;5.77;;
37895;SDS011;23733;53.254;10.430;2023-07-29T04:21:20;6.87;;;5.30;;
37895;SDS011;23733;53.254;10.430;2023-07-29T04:23:46;5.53;;;4.77;;
37895;SDS011;23733;53.254;10.430;2023-07-29T04:26:12;6.13;;;4.83;;
37895;SDS011;23733;53.254;10.430;2023-07-29T04:28:39;6.13;;;4.80;;
37895;SDS011;23733;53.254;10.430;2023-07-29T04:31:05;7.07;;;5.50;;
37895;SDS011;23733;53.254;10.430;2023-07-29T04:33:31;5.47;;;4.93;;
37895;SDS011;23733;53.254;10.430;2023-07-29T04:35:58;7.80;;;5.17;;
37895;SDS011;23733;53.254;10.430;2023-07-29T04:38:30;6.23;;;5.23;;
37895;SDS011;23733;53.254;10.430;2023-07-29T04:40:56;6.77;;;5.47;;
37895;SDS011;23733;53.254;10.430;2023-07-29T04:43:32;5.83;;;4.80;;
37895;SDS011;23733;53.254;10.430;2023-07-29T04:45:58;9.27;;;5.87;;
37895;SDS011;23733;53.254;10.430;2023-07-29T04:48:25;6.90;;;5.37;;
37895;SDS011;23733;53.254;10.430;2023-07-29T04:50:51;7.67;;;5.30;;
37895;SDS011;23733;53.254;10.430;2023-07-29T04:53:17;9.53;;;5.53;;
37895;SDS011;23733;53.254;10.430;2023-07-29T04:55:44;6.17;;;5.20;;
37895;SDS011;23733;53.254;10.430;2023-07-29T04:58:10;6.43;;;5.30;;
37895;SDS011;23733;53.254;10.430;2023-07-29T05:00:36;7.73;;;5.60;;
37895;SDS011;23733;53.254;10.430;2023-07-29T05:03:02;8.77;;;5.20;;
37895;SDS011;23733;53.254;10.430;2023-07-29T05:05:30;7.37;;;5.60;;
37895;SDS011;23733;53.254;10.430;2023-07-29T05:07:56;6.83;;;5.50;;
37895;SDS011;23733;53.254;10.430;2023-07-29T05:10:22;10.57;;;6.50;;
37895;SDS011;23733;53.254;10.430;2023-07-29T05:12:49;6.93;;;5.80;;
37895;SDS011;23733;53.254;10.430;2023-07-29T05:15:15;7.63;;;5.80;;
37895;SDS011;23733;53.254;10.430;2023-07-29T05:17:42;10.20;;;5.63;;
37895;SDS011;23733;53.254;10.430;2023-07-29T05:20:08;7.63;;;5.93;;
37895;SDS011;23733;53.254;10.430;2023-07-29T05:22:34;9.27;;;5.80;;
37895;SDS011;23733;53.254;10.430;2023-07-29T05:25:01;7.63;;;5.83;;
37895;SDS011;23733;53.254;10.430;2023-07-29T05:27:27;6.13;;;5.03;;
37895;SDS011;23733;53.254;10.430;2023-07-29T05:29:53;7.20;;;5.90;;
37895;SDS011;23733;53.254;10.430;2023-07-29T05:32:20;5.97;;;4.97;;
37895;SDS011;23733;53.254;10.430;2023-07-29T05:34:46;7.77;;;5.80;;
37895;SDS011;23733;53.254;10.430;2023-07-29T05:37:12;7.53;;;5.10;;
37895;SDS011;23733;53.254;10.430;2023-07-29T05:39:38;5.93;;;5.17;;
37895;SDS011;23733;53.254;10.430;2023-07-29T05:42:05;10.10;;;5.97;;
37895;SDS011;23733;53.254;10.430;2023-07-29T05:44:31;7.50;;;5.70;;
37895;SDS011;23733;53.254;10.430;2023-07-29T05:46:58;6.83;;;5.93;;
37895;SDS011;23733;53.254;10.430;2023-07-29T05:49:24;7.87;;;5.90;;
37895;SDS011;23733;53.254;10.430;2023-07-29T05:51:50;12.93;;;5.93;;
37895;SDS011;23733;53.254;10.430;2023-07-29T05:54:18;7.63;;;6.37;;
37895;SDS011;23733;53.254;10.430;2023-07-29T05:56:44;6.30;;;5.30;;
37895;SDS011;23733;53.254;10.430;2023-07-29T05:59:10;8.23;;;5.80;;
37895;SDS011;23733;53.254;10.430;2023-07-29T06:01:37;6.70;;;5.97;;
37895;SDS011;23733;53.254;10.430;2023-07-29T06:04:03;8.47;;;5.63;;
37895;SDS011;23733;53.254;10.430;2023-07-29T06:06:29;6.00;;;5.27;;
37895;SDS011;23733;53.254;10.430;2023-07-29T06:08:56;7.83;;;5.73;;
37895;SDS011;23733;53.254;10.430;2023-07-29T06:11:23;6.10;;;5.20;;
37895;SDS011;23733;53.254;10.430;2023-07-29T06:13:49;7.57;;;6.00;;
37895;SDS011;23733;53.254;10.430;2023-07-29T06:16:16;8.23;;;5.90;;
37895;SDS011;23733;53.254;10.430;2023-07-29T06:18:42;7.17;;;5.30;;
37895;SDS011;23733;53.254;10.430;2023-07-29T06:21:08;8.10;;;5.80;;
37895;SDS011;23733;53.254;10.430;2023-07-29T06:23:37;7.27;;;5.40;;
37895;SDS011;23733;53.254;10.430;2023-07-29T06:26:04;7.93;;;6.20;;
37895;SDS011;23733;53.254;10.430;2023-07-29T06:28:32;7.67;;;5.53;;
37895;SDS011;23733;53.254;10.430;2023-07-29T06:30:58;8.80;;;6.53;;
37895;SDS011;23733;53.254;10.430;2023-07-29T06:33:24;7.80;;;5.20;;
37895;SDS011;23733;53.254;10.430;2023-07-29T06:35:51;6.43;;;5.10;;
37895;SDS011;23733;53.254;10.430;2023-07-29T06:38:17;7.83;;;5.60;;
37895;SDS011;23733;53.254;10.430;2023-07-29T06:40:50;6.47;;;5.07;;
37895;SDS011;23733;53.254;10.430;2023-07-29T06:43:16;6.53;;;4.67;;
37895;SDS011;23733;53.254;10.430;2023-07-29T06:45:42;6.17;;;4.90;;
37895;SDS011;23733;53.254;10.430;2023-07-29T06:48:08;6.93;;;5.17;;
37895;SDS011;23733;53.254;10.430;2023-07-29T06:50:34;9.53;;;5.10;;
37895;SDS011;23733;53.254;10.430;2023-07-29T06:53:00;5.90;;;4.70;;
37895;SDS011;23733;53.254;10.430;2023-07-29T06:55:26;5.83;;;4.50;;
37895;SDS011;23733;53.254;10.430;2023-07-29T06:57:52;6.50;;;4.27;;
37895;SDS011;23733;53.254;10.430;2023-07-29T07:00:19;6.37;;;4.27;;
37895;SDS011;23733;53.254;10.430;2023-07-29T07:02:45;6.37;;;3.63;;
37895;SDS011;23733;53.254;10.430;2023-07-29T07:05:11;7.27;;;4.00;;
37895;SDS011;23733;53.254;10.430;2023-07-29T07:07:37;5.67;;;3.37;;
37895;SDS011;23733;53.254;10.430;2023-07-29T07:10:03;5.57;;;3.07;;
37895;SDS011;23733;53.254;10.430;2023-07-29T07:12:29;3.10;;;2.80;;
37895;SDS011;23733;53.254;10.430;2023-07-29T07:14:55;3.40;;;3.00;;
37895;SDS011;23733;53.254;10.430;2023-07-29T07:17:21;5.40;;;2.80;;
37895;SDS011;23733;53.254;10.430;2023-07-29T07:19:47;3.70;;;2.27;;
37895;SDS011;23733;53.254;10.430;2023-07-29T07:22:13;5.87;;;2.90;;
37895;SDS011;23733;53.254;10.430;2023-07-29T07:24:39;2.60;;;2.27;;
37895;SDS011;23733;53.254;10.430;2023-07-29T07:27:06;4.90;;;2.57;;
37895;SDS011;23733;53.254;10.430;2023-07-29T07:29:32;4.80;;;2.40;;
37895;SDS011;23733;53.254;10.430;2023-07-29T07:31:58;2.70;;;2.07;;
37895;SDS011;23733;53.254;10.430;2023-07-29T07:34:24;3.20;;;2.50;;
37895;SDS011;23733;53.254;10.430;2023-07-29T07:36:50;3.27;;;2.23;;
37895;SDS011;23733;53.254;10.430;2023-07-29T07:39:16;3.07;;;2.03;;
37895;SDS011;23733;53.254;10.430;2023-07-29T07:41:42;4.83;;;2.13;;
37895;SDS011;23733;53.254;10.430;2023-07-29T07:44:09;2.67;;;2.30;;
37895;SDS011;23733;53.254;10.430;2023-07-29T07:46:36;3.07;;;2.20;;
37895;SDS011;23733;53.254;10.430;2023-07-29T07:49:02;3.50;;;2.17;;
37895;SDS011;23733;53.254;10.430;2023-07-29T07:51:28;2.37;;;1.67;;
37895;SDS011;23733;53.254;10.430;2023-07-29T07:53:54;3.03;;;1.93;;
37895;SDS011;23733;53.254;10.430;2023-07-29T07:56:20;2.50;;;2.00;;
37895;SDS011;23733;53.254;10.430;2023-07-29T07:58:46;3.57;;;2.13;;
37895;SDS011;23733;53.254;10.430;2023-07-29T08:01:12;2.17;;;1.80;;
37895;SDS011;23733;53.254;10.430;2023-07-29T08:03:38;3.50;;;2.10;;
37895;SDS011;23733;53.254;10.430;2023-07-29T08:06:05;2.10;;;1.90;;
37895;SDS011;23733;53.254;10.430;2023-07-29T08:08:31;5.63;;;2.17;;
37895;SDS011;23733;53.254;10.430;2023-07-29T08:10:57;2.47;;;2.27;;
37895;SDS011;23733;53.254;10.430;2023-07-29T08:13:23;2.10;;;1.83;;
37895;SDS011;23733;53.254;10.430;2023-07-29T08:15:50;1.97;;;1.77;;
37895;SDS011;23733;53.254;10.430;2023-07-29T08:18:17;3.67;;;2.03;;
37895;SDS011;23733;53.254;10.430;2023-07-29T08:20:56;2.23;;;2.03;;
37895;SDS011;23733;53.254;10.430;2023-07-29T08:23:26;2.93;;;2.30;;
37895;SDS011;23733;53.254;10.430;2023-07-29T08:25:56;3.00;;;2.20;;
37895;SDS011;23733;53.254;10.430;2023-07-29T08:28:30;3.30;;;2.43;;
37895;SDS011;23733;53.254;10.430;2023-07-29T08:30:57;2.70;;;2.40;;
37895;SDS011;23733;53.254;10.430;2023-07-29T08:33:24;2.37;;;2.17;;
37895;SDS011;23733;53.254;10.430;2023-07-29T08:35:50;2.43;;;2.03;;
37895;SDS011;23733;53.254;10.430;2023-07-29T08:38:16;2.50;;;2.20;;
37895;SDS011;23733;53.254;10.430;2023-07-29T08:40:45;3.40;;;2.33;;
37895;SDS011;23733;53.254;10.430;2023-07-29T08:43:31;2.83;;;2.30;;
37895;SDS011;23733;53.254;10.430;2023-07-29T08:45:58;2.20;;;2.00;;
37895;SDS011;23733;53.254;10.430;2023-07-29T08:48:29;3.50;;;2.40;;
37895;SDS011;23733;53.254;10.430;2023-07-29T08:51:05;2.33;;;2.13;;
37895;SDS011;23733;53.254;10.430;2023-07-29T08:53:33;2.77;;;2.40;;
37895;SDS011;23733;53.254;10.430;2023-07-29T08:56:00;3.50;;;3.20;;
37895;SDS011;23733;53.254;10.430;2023-07-29T08:58:27;4.40;;;3.70;;
37895;SDS011;23733;53.254;10.430;2023-07-29T09:00:53;4.57;;;4.13;;
37895;SDS011;23733;53.254;10.430;2023-07-29T09:03:19;4.67;;;4.03;;
37895;SDS011;23733;53.254;10.430;2023-07-29T09:05:46;4.93;;;4.43;;
37895;SDS011;23733;53.254;10.430;2023-07-29T09:08:13;7.30;;;4.50;;
37895;SDS011;23733;53.254;10.430;2023-07-29T09:10:40;9.97;;;5.70;;
37895;SDS011;23733;53.254;10.430;2023-07-29T09:13:06;6.17;;;5.00;;
37895;SDS011;23733;53.254;10.430;2023-07-29T09:15:35;6.93;;;4.53;;
37895;SDS011;23733;53.254;10.430;2023-07-29T09:18:12;5.37;;;4.73;;
37895;SDS011;23733;53.254;10.430;2023-07-29T09:20:41;5.13;;;4.63;;
37895;SDS011;23733;53.254;10.430;2023-07-29T09:23:08;5.63;;;4.90;;
37895;SDS011;23733;53.254;10.430;2023-07-29T09:25:35;7.47;;;5.37;;
37895;SDS011;23733;53.254;10.430;2023-07-29T09:28:07;7.27;;;5.77;;
37895;SDS011;23733;53.254;10.430;2023-07-29T09:30:38;6.83;;;5.70;;
37895;SDS011;23733;53.254;10.430;2023-07-29T09:33:05;7.53;;;4.53;;
37895;SDS011;23733;53.254;10.430;2023-07-29T09:35:35;6.03;;;3.60;;
37895;SDS011;23733;53.254;10.430;2023-07-29T09:38:02;4.20;;;3.30;;
37895;SDS011;23733;53.254;10.430;2023-07-29T09:40:38;3.77;;;2.53;;
37895;SDS011;23733;53.254;10.430;2023-07-29T09:43:06;2.80;;;2.50;;
37895;SDS011;23733;53.254;10.430;2023-07-29T09:45:34;3.80;;;2.93;;
37895;SDS011;23733;53.254;10.430;2023-07-29T09:48:01;3.63;;;2.90;;
37895;SDS011;23733;53.254;10.430;2023-07-29T09:50:28;2.57;;;2.37;;
37895;SDS011;23733;53.254;10.430;2023-07-29T09:52:55;3.43;;;2.70;;
37895;SDS011;23733;53.254;10.430;2023-07-29T09:55:24;3.07;;;2.60;;
37895;SDS011;23733;53.254;10.430;2023-07-29T09:57:56;4.30;;;2.70;;
37895;SDS011;23733;53.254;10.430;2023-07-29T10:00:27;2.60;;;2.40;;
37895;SDS011;23733;53.254;10.430;2023-07-29T10:02:54;3.90;;;3.13;;
37895;SDS011;23733;53.254;10.430;2023-07-29T10:05:22;5.23;;;3.57;;
37895;SDS011;23733;53.254;10.430;2023-07-29T10:07:51;4.87;;;4.17;;
37895;SDS011;23733;53.254;10.430;2023-07-29T10:10:17;5.07;;;4.07;;
37895;SDS011;23733;53.254;10.430;2023-07-29T10:12:44;5.87;;;4.70;;
37895;SDS011;23733;53.254;10.430;2023-07-29T10:15:10;7.03;;;5.13;;
37895;SDS011;23733;53.254;10.430;2023-07-29T10:17:37;7.87;;;5.00;;
37895;SDS011;23733;53.254;10.430;2023-07-29T10:20:04;6.43;;;5.43;;
37895;SDS011;23733;53.254;10.430;2023-07-29T10:22:33;5.80;;;5.00;;
37895;SDS011;23733;53.254;10.430;2023-07-29T10:25:21;6.30;;;5.70;;
37895;SDS011;23733;53.254;10.430;2023-07-29T10:28:00;6.23;;;5.63;;
37895;SDS011;23733;53.254;10.430;2023-07-29T10:30:31;6.27;;;5.53;;
37895;SDS011;23733;53.254;10.430;2023-07-29T10:32:58;6.20;;;5.60;;
37895;SDS011;23733;53.254;10.430;2023-07-29T10:35:26;6.73;;;5.63;;
37895;SDS011;23733;53.254;10.430;2023-07-29T10:37:53;6.57;;;5.93;;
37895;SDS011;23733;53.254;10.430;2023-07-29T10:40:20;5.87;;;5.30;;
37895;SDS011;23733;53.254;10.430;2023-07-29T10:42:59;7.97;;;6.37;;
37895;SDS011;23733;53.254;10.430;2023-07-29T10:45:38;6.87;;;5.70;;
37895;SDS011;23733;53.254;10.430;2023-07-29T10:54:02;8.77;;;5.53;;
37895;SDS011;23733;53.254;10.430;2023-07-29T10:56:36;7.30;;;6.50;;
37895;SDS011;23733;53.254;10.430;2023-07-29T11:01:37;7.50;;;6.10;;
37895;SDS011;23733;53.254;10.430;2023-07-29T11:17:40;6.40;;;5.80;;
37895;SDS011;23733;53.254;10.430;2023-07-29T11:20:13;7.43;;;5.60;;
37895;SDS011;23733;53.254;10.430;2023-07-29T11:22:40;6.90;;;6.20;;
37895;SDS011;23733;53.254;10.430;2023-07-29T11:25:07;7.53;;;5.97;;
37895;SDS011;23733;53.254;10.430;2023-07-29T11:27:36;6.40;;;5.80;;
37895;SDS011;23733;53.254;10.430;2023-07-29T11:30:03;6.83;;;5.40;;
37895;SDS011;23733;53.254;10.430;2023-07-29T11:32:36;6.30;;;5.70;;
37895;SDS011;23733;53.254;10.430;2023-07-29T11:35:03;5.70;;;5.20;;
37895;SDS011;23733;53.254;10.430;2023-07-29T11:37:30;5.67;;;5.17;;
37895;SDS011;23733;53.254;10.430;2023-07-29T11:39:56;6.97;;;5.57;;
37895;SDS011;23733;53.254;10.430;2023-07-29T11:42:23;8.53;;;5.50;;
37895;SDS011;23733;53.254;10.430;2023-07-29T11:44:50;7.07;;;5.13;;
37895;SDS011;23733;53.254;10.430;2023-07-29T11:47:16;6.20;;;5.03;;
37895;SDS011;23733;53.254;10.430;2023-07-29T11:49:42;5.83;;;5.20;;
37895;SDS011;23733;53.254;10.430;2023-07-29T11:52:09;4.70;;;4.20;;
37895;SDS011;23733;53.254;10.430;2023-07-29T11:54:36;5.03;;;4.47;;
37895;SDS011;23733;53.254;10.430;2023-07-29T11:57:06;5.03;;;4.53;;
37895;SDS011;23733;53.254;10.430;2023-07-29T11:59:33;5.07;;;4.50;;
37895;SDS011;23733;53.254;10.430;2023-07-29T12:02:01;5.97;;;4.47;;
37895;SDS011;23733;53.254;10.430;2023-07-29T12:04:30;5.27;;;4.77;;
37895;SDS011;23733;53.254;10.430;2023-07-29T12:06:57;5.33;;;4.83;;
37895;SDS011;23733;53.254;10.430;2023-07-29T12:09:24;7.20;;;5.27;;
37895;SDS011;23733;53.254;10.430;2023-07-29T12:11:52;5.53;;;4.93;;
37895;SDS011;23733;53.254;10.430;2023-07-29T12:14:19;5.27;;;4.77;;
37895;SDS011;23733;53.254;10.430;2023-07-29T12:16:48;4.90;;;4.10;;
37895;SDS011;23733;53.254;10.430;2023-07-29T12:19:15;4.90;;;4.40;;
37895;SDS011;23733;53.254;10.430;2023-07-29T12:21:41;5.00;;;4.10;;
37895;SDS011;23733;53.254;10.430;2023-07-29T12:24:07;4.00;;;3.60;;
37895;SDS011;23733;53.254;10.430;2023-07-29T12:26:35;5.37;;;3.90;;
37895;SDS011;23733;53.254;10.430;2023-07-29T12:29:11;5.37;;;3.80;;
37895;SDS011;23733;53.254;10.430;2023-07-29T12:31:38;3.67;;;3.37;;
37895;SDS011;23733;53.254;10.430;2023-07-29T12:34:04;3.20;;;2.90;;
37895;SDS011;23733;53.254;10.430;2023-07-29T12:36:46;5.27;;;2.73;;
37895;SDS011;23733;53.254;10.430;2023-07-29T12:39:26;3.93;;;2.50;;
37895;SDS011;23733;53.254;10.430;2023-07-29T12:41:54;3.80;;;2.60;;
37895;SDS011;23733;53.254;10.430;2023-07-29T12:44:39;3.00;;;2.70;;
37895;SDS011;23733;53.254;10.430;2023-07-29T12:47:05;3.73;;;2.50;;
37895;SDS011;23733;53.254;10.430;2023-07-29T12:49:32;2.53;;;2.33;;
37895;SDS011;23733;53.254;10.430;2023-07-29T12:51:59;2.43;;;2.03;;
37895;SDS011;23733;53.254;10.430;2023-07-29T12:54:25;4.17;;;2.60;;
37895;SDS011;23733;53.254;10.430;2023-07-29T12:56:52;3.13;;;2.57;;
37895;SDS011;23733;53.254;10.430;2023-07-29T12:59:18;3.10;;;2.17;;
37895;SDS011;23733;53.254;10.430;2023-07-29T13:01:44;2.23;;;2.03;;
37895;SDS011;23733;53.254;10.430;2023-07-29T13:04:10;2.97;;;2.10;;
37895;SDS011;23733;53.254;10.430;2023-07-29T13:06:37;4.13;;;2.10;;
37895;SDS011;23733;53.254;10.430;2023-07-29T13:09:03;5.90;;;1.80;;
37895;SDS011;23733;53.254;10.430;2023-07-29T13:11:31;2.77;;;2.00;;
37895;SDS011;23733;53.254;10.430;2023-07-29T13:14:00;3.43;;;2.00;;
37895;SDS011;23733;53.254;10.430;2023-07-29T13:16:30;2.20;;;1.90;;
37895;SDS011;23733;53.254;10.430;2023-07-29T13:18:56;2.97;;;1.70;;
37895;SDS011;23733;53.254;10.430;2023-07-29T13:21:23;2.00;;;1.67;;
37895;SDS011;23733;53.254;10.430;2023-07-29T13:23:49;3.10;;;2.10;;
37895;SDS011;23733;53.254;10.430;2023-07-29T13:26:15;2.33;;;1.80;;
37895;SDS011;23733;53.254;10.430;2023-07-29T13:28:42;3.50;;;2.30;;
37895;SDS011;23733;53.254;10.430;2023-07-29T13:31:08;1.93;;;1.60;;
37895;SDS011;23733;53.254;10.430;2023-07-29T13:33:34;2.80;;;1.70;;
37895;SDS011;23733;53.254;10.430;2023-07-29T13:36:01;4.00;;;1.97;;
37895;SDS011;23733;53.254;10.430;2023-07-29T13:38:29;1.80;;;1.50;;
37895;SDS011;23733;53.254;10.430;2023-07-29T13:40:56;4.20;;;1.70;;
37895;SDS011;23733;53.254;10.430;2023-07-29T13:43:22;1.60;;;1.50;;
37895;SDS011;23733;53.254;10.430;2023-07-29T13:45:48;4.00;;;1.67;;
37895;SDS011;23733;53.254;10.430;2023-07-29T13:48:15;2.73;;;1.70;;
37895;SDS011;23733;53.254;10.430;2023-07-29T13:50:41;2.20;;;1.57;;
37895;SDS011;23733;53.254;10.430;2023-07-29T13:53:09;3.40;;;1.90;;
37895;SDS011;23733;53.254;10.430;2023-07-29T13:55:35;4.93;;;1.80;;
37895;SDS011;23733;53.254;10.430;2023-07-29T13:58:01;2.47;;;1.50;;
37895;SDS011;23733;53.254;10.430;2023-07-29T14:00:27;2.87;;;1.50;;
37895;SDS011;23733;53.254;10.430;2023-07-29T14:02:53;2.40;;;1.53;;
37895;SDS011;23733;53.254;10.430;2023-07-29T14:05:19;2.33;;;1.50;;
37895;SDS011;23733;53.254;10.430;2023-07-29T14:07:45;2.23;;;1.40;;
37895;SDS011;23733;53.254;10.430;2023-07-29T14:10:11;1.70;;;1.50;;
37895;SDS011;23733;53.254;10.430;2023-07-29T14:12:38;1.40;;;1.30;;
37895;SDS011;23733;53.254;10.430;2023-07-29T14:15:04;2.87;;;1.30;;
37895;SDS011;23733;53.254;10.430;2023-07-29T14:17:31;1.80;;;1.30;;
37895;SDS011;23733;53.254;10.430;2023-07-29T14:19:57;1.40;;;1.30;;
37895;SDS011;23733;53.254;10.430;2023-07-29T14:22:23;1.90;;;1.40;;
37895;SDS011;23733;53.254;10.430;2023-07-29T14:24:49;1.60;;;1.30;;
37895;SDS011;23733;53.254;10.430;2023-07-29T14:27:15;2.00;;;1.57;;
37895;SDS011;23733;53.254;10.430;2023-07-29T14:29:42;1.50;;;1.20;;
37895;SDS011;23733;53.254;10.430;2023-07-29T14:32:08;1.70;;;1.53;;
37895;SDS011;23733;53.254;10.430;2023-07-29T14:34:34;3.10;;;1.30;;
37895;SDS011;23733;53.254;10.430;2023-07-29T14:37:00;2.17;;;1.40;;
37895;SDS011;23733;53.254;10.430;2023-07-29T14:39:26;3.40;;;1.60;;
37895;SDS011;23733;53.254;10.430;2023-07-29T14:41:52;2.57;;;1.63;;
37895;SDS011;23733;53.254;10.430;2023-07-29T14:44:18;1.60;;;1.40;;
37895;SDS011;23733;53.254;10.430;2023-07-29T14:46:44;1.50;;;1.30;;
37895;SDS011;23733;53.254;10.430;2023-07-29T14:49:10;3.10;;;1.30;;
37895;SDS011;23733;53.254;10.430;2023-07-29T14:51:37;1.50;;;1.40;;
37895;SDS011;23733;53.254;10.430;2023-07-29T14:54:03;1.53;;;1.37;;
37895;SDS011;23733;53.254;10.430;2023-07-29T14:56:29;2.90;;;1.53;;
37895;SDS011;23733;53.254;10.430;2023-07-29T14:58:55;1.60;;;1.50;;
37895;SDS011;23733;53.254;10.430;2023-07-29T15:01:21;1.80;;;1.30;;